sensor_id;sensor_type;location;lat;lon;timestamp;P1;durP1;ratioP1;P2;durP2;ratioP2
72895;SDS011;61036;53.224;6.554;2023-09-18T00:00:48;24.37;;;19.43;;
72895;SDS011;61036;53.224;6.554;2023-09-18T00:03:15;26.77;;;21.17;;
72895;SDS011;61036;53.224;6.554;2023-09-18T00:05:46;25.07;;;20.33;;
72895;SDS011;61036;53.224;6.554;2023-09-18T00:08:13;25.03;;;20.50;;
72895;SDS011;61036;53.224;6.554;2023-09-18T00:10:39;24.27;;;18.97;;
72895;SDS011;61036;53.224;6.554;2023-09-18T00:13:05;23.23;;;19.17;;
72895;SDS011;61036;53.224;6.554;2023-09-18T00:15:30;23.17;;;19.03;;
72895;SDS011;61036;53.224;6.554;2023-09-18T00:17:56;22.90;;;19.53;;
72895;SDS011;61036;53.224;6.554;2023-09-18T00:20:21;24.20;;;20.83;;
72895;SDS011;61036;53.224;6.554;2023-09-18T00:22:53;21.87;;;18.97;;
72895;SDS011;61036;53.224;6.554;2023-09-18T00:25:19;23.63;;;18.77;;
72895;SDS011;61036;53.224;6.554;2023-09-18T00:27:45;25.13;;;19.17;;
72895;SDS011;61036;53.224;6.554;2023-09-18T00:30:11;27.10;;;22.00;;
72895;SDS011;61036;53.224;6.554;2023-09-18T00:32:36;27.00;;;21.93;;
72895;SDS011;61036;53.224;6.554;2023-09-18T00:35:02;24.70;;;20.30;;
72895;SDS011;61036;53.224;6.554;2023-09-18T00:37:28;23.10;;;19.60;;
72895;SDS011;61036;53.224;6.554;2023-09-18T00:39:54;24.57;;;18.63;;
72895;SDS011;61036;53.224;6.554;2023-09-18T00:42:19;25.83;;;21.60;;
72895;SDS011;61036;53.224;6.554;2023-09-18T00:44:47;24.37;;;19.90;;
72895;SDS011;61036;53.224;6.554;2023-09-18T00:47:13;28.80;;;23.33;;
72895;SDS011;61036;53.224;6.554;2023-09-18T00:49:40;27.63;;;23.00;;
72895;SDS011;61036;53.224;6.554;2023-09-18T00:52:08;28.10;;;23.87;;
72895;SDS011;61036;53.224;6.554;2023-09-18T00:54:35;25.30;;;21.33;;
72895;SDS011;61036;53.224;6.554;2023-09-18T00:57:03;23.47;;;20.43;;
72895;SDS011;61036;53.224;6.554;2023-09-18T00:59:30;27.83;;;24.07;;
72895;SDS011;61036;53.224;6.554;2023-09-18T01:01:56;25.83;;;21.70;;
72895;SDS011;61036;53.224;6.554;2023-09-18T01:04:22;25.57;;;21.83;;
72895;SDS011;61036;53.224;6.554;2023-09-18T01:06:50;27.03;;;23.07;;
72895;SDS011;61036;53.224;6.554;2023-09-18T01:09:17;24.67;;;21.37;;
72895;SDS011;61036;53.224;6.554;2023-09-18T01:14:35;24.40;;;21.70;;
72895;SDS011;61036;53.224;6.554;2023-09-18T01:17:09;26.07;;;22.80;;
72895;SDS011;61036;53.224;6.554;2023-09-18T01:19:39;26.50;;;22.43;;
72895;SDS011;61036;53.224;6.554;2023-09-18T01:22:15;27.40;;;23.77;;
72895;SDS011;61036;53.224;6.554;2023-09-18T01:24:43;25.57;;;21.47;;
72895;SDS011;61036;53.224;6.554;2023-09-18T01:27:14;25.93;;;21.80;;
72895;SDS011;61036;53.224;6.554;2023-09-18T01:29:44;27.53;;;23.17;;
72895;SDS011;61036;53.224;6.554;2023-09-18T01:32:10;26.13;;;22.17;;
72895;SDS011;61036;53.224;6.554;2023-09-18T01:34:37;25.23;;;21.60;;
72895;SDS011;61036;53.224;6.554;2023-09-18T01:37:07;25.07;;;21.50;;
72895;SDS011;61036;53.224;6.554;2023-09-18T01:39:34;30.27;;;24.33;;
72895;SDS011;61036;53.224;6.554;2023-09-18T01:42:03;27.37;;;23.37;;
72895;SDS011;61036;53.224;6.554;2023-09-18T01:44:35;28.37;;;22.13;;
72895;SDS011;61036;53.224;6.554;2023-09-18T01:47:03;24.60;;;21.93;;
72895;SDS011;61036;53.224;6.554;2023-09-18T01:49:34;26.37;;;22.30;;
72895;SDS011;61036;53.224;6.554;2023-09-18T01:52:02;24.70;;;21.50;;
72895;SDS011;61036;53.224;6.554;2023-09-18T01:54:29;25.27;;;22.00;;
72895;SDS011;61036;53.224;6.554;2023-09-18T01:56:55;25.27;;;20.10;;
72895;SDS011;61036;53.224;6.554;2023-09-18T01:59:21;23.73;;;20.10;;
72895;SDS011;61036;53.224;6.554;2023-09-18T02:01:48;25.53;;;22.43;;
72895;SDS011;61036;53.224;6.554;2023-09-18T02:04:14;27.63;;;24.03;;
72895;SDS011;61036;53.224;6.554;2023-09-18T02:06:40;29.33;;;24.13;;
72895;SDS011;61036;53.224;6.554;2023-09-18T02:09:06;34.13;;;27.97;;
72895;SDS011;61036;53.224;6.554;2023-09-18T02:11:39;36.20;;;28.23;;
72895;SDS011;61036;53.224;6.554;2023-09-18T02:14:06;32.33;;;28.87;;
72895;SDS011;61036;53.224;6.554;2023-09-18T02:16:36;30.03;;;25.17;;
72895;SDS011;61036;53.224;6.554;2023-09-18T02:19:06;32.43;;;28.10;;
72895;SDS011;61036;53.224;6.554;2023-09-18T02:21:33;33.10;;;27.30;;
72895;SDS011;61036;53.224;6.554;2023-09-18T02:23:58;30.23;;;25.97;;
72895;SDS011;61036;53.224;6.554;2023-09-18T02:26:24;30.80;;;25.17;;
72895;SDS011;61036;53.224;6.554;2023-09-18T02:28:53;29.13;;;24.70;;
72895;SDS011;61036;53.224;6.554;2023-09-18T02:31:20;31.63;;;26.87;;
72895;SDS011;61036;53.224;6.554;2023-09-18T02:33:46;28.67;;;25.53;;
72895;SDS011;61036;53.224;6.554;2023-09-18T02:36:12;32.07;;;27.53;;
72895;SDS011;61036;53.224;6.554;2023-09-18T02:38:38;30.37;;;25.67;;
72895;SDS011;61036;53.224;6.554;2023-09-18T02:41:03;28.73;;;25.53;;
72895;SDS011;61036;53.224;6.554;2023-09-18T02:43:29;30.37;;;23.90;;
72895;SDS011;61036;53.224;6.554;2023-09-18T02:45:55;32.57;;;27.37;;
72895;SDS011;61036;53.224;6.554;2023-09-18T02:48:21;29.80;;;26.00;;
72895;SDS011;61036;53.224;6.554;2023-09-18T02:50:46;27.67;;;23.47;;
72895;SDS011;61036;53.224;6.554;2023-09-18T02:53:19;27.97;;;24.93;;
72895;SDS011;61036;53.224;6.554;2023-09-18T02:55:46;29.10;;;24.63;;
72895;SDS011;61036;53.224;6.554;2023-09-18T02:58:21;29.60;;;24.77;;
72895;SDS011;61036;53.224;6.554;2023-09-18T03:00:48;26.53;;;23.33;;
72895;SDS011;61036;53.224;6.554;2023-09-18T03:03:16;26.17;;;21.63;;
72895;SDS011;61036;53.224;6.554;2023-09-18T03:05:43;23.00;;;20.43;;
72895;SDS011;61036;53.224;6.554;2023-09-18T03:08:09;26.77;;;23.50;;
72895;SDS011;61036;53.224;6.554;2023-09-18T03:10:37;25.13;;;20.97;;
72895;SDS011;61036;53.224;6.554;2023-09-18T03:13:06;27.20;;;23.07;;
72895;SDS011;61036;53.224;6.554;2023-09-18T03:15:33;30.20;;;24.27;;
72895;SDS011;61036;53.224;6.554;2023-09-18T03:17:59;26.80;;;23.77;;
72895;SDS011;61036;53.224;6.554;2023-09-18T03:20:26;26.07;;;22.67;;
72895;SDS011;61036;53.224;6.554;2023-09-18T03:22:54;30.77;;;25.53;;
72895;SDS011;61036;53.224;6.554;2023-09-18T03:25:21;25.07;;;22.43;;
72895;SDS011;61036;53.224;6.554;2023-09-18T03:27:47;27.50;;;24.50;;
72895;SDS011;61036;53.224;6.554;2023-09-18T03:30:13;25.77;;;22.97;;
72895;SDS011;61036;53.224;6.554;2023-09-18T03:32:42;28.47;;;25.03;;
72895;SDS011;61036;53.224;6.554;2023-09-18T03:35:09;26.67;;;23.30;;
72895;SDS011;61036;53.224;6.554;2023-09-18T03:37:43;29.17;;;22.23;;
72895;SDS011;61036;53.224;6.554;2023-09-18T03:40:21;26.63;;;22.83;;
72895;SDS011;61036;53.224;6.554;2023-09-18T03:42:47;26.70;;;22.63;;
72895;SDS011;61036;53.224;6.554;2023-09-18T03:45:14;26.40;;;23.10;;
72895;SDS011;61036;53.224;6.554;2023-09-18T03:47:42;25.60;;;22.43;;
72895;SDS011;61036;53.224;6.554;2023-09-18T03:50:08;25.00;;;21.50;;
72895;SDS011;61036;53.224;6.554;2023-09-18T03:52:35;24.37;;;21.80;;
72895;SDS011;61036;53.224;6.554;2023-09-18T03:55:01;28.83;;;23.47;;
72895;SDS011;61036;53.224;6.554;2023-09-18T03:57:27;26.50;;;23.10;;
72895;SDS011;61036;53.224;6.554;2023-09-18T03:59:53;22.60;;;20.20;;
72895;SDS011;61036;53.224;6.554;2023-09-18T04:02:18;26.37;;;22.63;;
72895;SDS011;61036;53.224;6.554;2023-09-18T04:04:44;24.77;;;20.90;;
72895;SDS011;61036;53.224;6.554;2023-09-18T04:07:10;23.67;;;20.70;;
72895;SDS011;61036;53.224;6.554;2023-09-18T04:09:36;23.30;;;19.87;;
72895;SDS011;61036;53.224;6.554;2023-09-18T04:12:03;22.07;;;18.90;;
72895;SDS011;61036;53.224;6.554;2023-09-18T04:14:33;19.70;;;17.50;;
72895;SDS011;61036;53.224;6.554;2023-09-18T04:16:58;22.07;;;19.47;;
72895;SDS011;61036;53.224;6.554;2023-09-18T04:19:26;22.97;;;19.33;;
72895;SDS011;61036;53.224;6.554;2023-09-18T04:21:52;19.97;;;17.67;;
72895;SDS011;61036;53.224;6.554;2023-09-18T04:24:17;20.93;;;17.87;;
72895;SDS011;61036;53.224;6.554;2023-09-18T04:26:43;22.97;;;18.03;;
72895;SDS011;61036;53.224;6.554;2023-09-18T04:29:09;21.97;;;17.50;;
72895;SDS011;61036;53.224;6.554;2023-09-18T04:31:34;20.53;;;17.97;;
72895;SDS011;61036;53.224;6.554;2023-09-18T04:34:00;19.97;;;17.27;;
72895;SDS011;61036;53.224;6.554;2023-09-18T04:36:26;22.07;;;17.90;;
72895;SDS011;61036;53.224;6.554;2023-09-18T04:38:52;21.83;;;17.87;;
72895;SDS011;61036;53.224;6.554;2023-09-18T04:41:17;18.63;;;15.90;;
72895;SDS011;61036;53.224;6.554;2023-09-18T04:43:43;19.13;;;17.10;;
72895;SDS011;61036;53.224;6.554;2023-09-18T04:46:09;17.90;;;15.60;;
72895;SDS011;61036;53.224;6.554;2023-09-18T04:48:35;18.37;;;15.93;;
72895;SDS011;61036;53.224;6.554;2023-09-18T04:51:03;19.60;;;16.97;;
72895;SDS011;61036;53.224;6.554;2023-09-18T04:53:30;23.20;;;17.90;;
72895;SDS011;61036;53.224;6.554;2023-09-18T04:55:56;19.53;;;17.43;;
72895;SDS011;61036;53.224;6.554;2023-09-18T04:58:22;19.43;;;16.43;;
72895;SDS011;61036;53.224;6.554;2023-09-18T05:00:58;18.07;;;14.93;;
72895;SDS011;61036;53.224;6.554;2023-09-18T05:03:25;21.10;;;18.23;;
72895;SDS011;61036;53.224;6.554;2023-09-18T05:05:54;17.33;;;14.77;;
72895;SDS011;61036;53.224;6.554;2023-09-18T05:08:20;20.47;;;16.47;;
72895;SDS011;61036;53.224;6.554;2023-09-18T05:10:46;19.77;;;17.07;;
72895;SDS011;61036;53.224;6.554;2023-09-18T05:13:13;20.23;;;15.20;;
72895;SDS011;61036;53.224;6.554;2023-09-18T05:15:38;19.07;;;15.40;;
72895;SDS011;61036;53.224;6.554;2023-09-18T05:18:04;21.97;;;16.87;;
72895;SDS011;61036;53.224;6.554;2023-09-18T05:20:30;18.40;;;15.87;;
72895;SDS011;61036;53.224;6.554;2023-09-18T05:22:57;17.70;;;15.40;;
72895;SDS011;61036;53.224;6.554;2023-09-18T05:25:24;22.30;;;16.20;;
72895;SDS011;61036;53.224;6.554;2023-09-18T05:27:53;21.23;;;15.27;;
72895;SDS011;61036;53.224;6.554;2023-09-18T05:30:26;21.17;;;14.40;;
72895;SDS011;61036;53.224;6.554;2023-09-18T05:32:56;20.77;;;15.87;;
72895;SDS011;61036;53.224;6.554;2023-09-18T05:35:22;17.20;;;14.30;;
72895;SDS011;61036;53.224;6.554;2023-09-18T05:37:49;18.17;;;14.73;;
72895;SDS011;61036;53.224;6.554;2023-09-18T05:40:16;18.03;;;13.87;;
72895;SDS011;61036;53.224;6.554;2023-09-18T05:42:42;22.57;;;14.60;;
72895;SDS011;61036;53.224;6.554;2023-09-18T05:45:09;18.97;;;13.80;;
72895;SDS011;61036;53.224;6.554;2023-09-18T05:47:36;21.93;;;16.20;;
72895;SDS011;61036;53.224;6.554;2023-09-18T05:50:04;19.13;;;14.53;;
72895;SDS011;61036;53.224;6.554;2023-09-18T05:52:33;21.77;;;15.60;;
72895;SDS011;61036;53.224;6.554;2023-09-18T05:55:00;20.40;;;15.23;;
72895;SDS011;61036;53.224;6.554;2023-09-18T05:57:27;16.67;;;13.33;;
72895;SDS011;61036;53.224;6.554;2023-09-18T05:59:56;16.43;;;12.83;;
72895;SDS011;61036;53.224;6.554;2023-09-18T06:02:22;19.20;;;14.57;;
72895;SDS011;61036;53.224;6.554;2023-09-18T06:04:54;17.77;;;12.90;;
72895;SDS011;61036;53.224;6.554;2023-09-18T06:07:21;16.63;;;12.47;;
72895;SDS011;61036;53.224;6.554;2023-09-18T06:09:48;15.27;;;11.93;;
72895;SDS011;61036;53.224;6.554;2023-09-18T06:12:13;16.17;;;13.10;;
72895;SDS011;61036;53.224;6.554;2023-09-18T06:14:39;18.87;;;11.93;;
72895;SDS011;61036;53.224;6.554;2023-09-18T06:17:05;16.13;;;11.53;;
72895;SDS011;61036;53.224;6.554;2023-09-18T06:19:31;13.60;;;10.97;;
72895;SDS011;61036;53.224;6.554;2023-09-18T06:21:58;14.03;;;10.60;;
72895;SDS011;61036;53.224;6.554;2023-09-18T06:24:23;16.37;;;11.07;;
72895;SDS011;61036;53.224;6.554;2023-09-18T06:26:52;13.70;;;10.37;;
72895;SDS011;61036;53.224;6.554;2023-09-18T06:29:18;12.90;;;10.53;;
72895;SDS011;61036;53.224;6.554;2023-09-18T06:31:44;15.63;;;10.90;;
72895;SDS011;61036;53.224;6.554;2023-09-18T06:34:10;13.63;;;10.03;;
72895;SDS011;61036;53.224;6.554;2023-09-18T06:36:36;15.70;;;9.97;;
72895;SDS011;61036;53.224;6.554;2023-09-18T06:39:02;15.20;;;9.70;;
72895;SDS011;61036;53.224;6.554;2023-09-18T06:41:28;16.70;;;9.53;;
72895;SDS011;61036;53.224;6.554;2023-09-18T06:43:54;11.80;;;9.10;;
72895;SDS011;61036;53.224;6.554;2023-09-18T06:46:19;14.50;;;9.10;;
72895;SDS011;61036;53.224;6.554;2023-09-18T06:48:45;12.90;;;9.10;;
72895;SDS011;61036;53.224;6.554;2023-09-18T06:51:14;11.83;;;8.27;;
72895;SDS011;61036;53.224;6.554;2023-09-18T06:53:41;10.53;;;7.47;;
72895;SDS011;61036;53.224;6.554;2023-09-18T06:56:09;11.87;;;8.17;;
72895;SDS011;61036;53.224;6.554;2023-09-18T06:58:35;11.13;;;7.90;;
72895;SDS011;61036;53.224;6.554;2023-09-18T07:01:01;10.93;;;8.13;;
72895;SDS011;61036;53.224;6.554;2023-09-18T07:03:26;13.73;;;8.90;;
72895;SDS011;61036;53.224;6.554;2023-09-18T07:05:52;17.40;;;8.97;;
72895;SDS011;61036;53.224;6.554;2023-09-18T07:08:18;15.60;;;9.33;;
72895;SDS011;61036;53.224;6.554;2023-09-18T07:10:44;15.53;;;9.53;;
72895;SDS011;61036;53.224;6.554;2023-09-18T07:13:10;13.00;;;8.43;;
72895;SDS011;61036;53.224;6.554;2023-09-18T07:15:37;12.60;;;10.87;;
72895;SDS011;61036;53.224;6.554;2023-09-18T07:18:02;14.47;;;10.07;;
72895;SDS011;61036;53.224;6.554;2023-09-18T07:20:29;15.87;;;11.03;;
72895;SDS011;61036;53.224;6.554;2023-09-18T07:22:55;14.70;;;11.57;;
72895;SDS011;61036;53.224;6.554;2023-09-18T07:25:21;17.90;;;12.03;;
72895;SDS011;61036;53.224;6.554;2023-09-18T07:27:47;14.13;;;11.53;;
72895;SDS011;61036;53.224;6.554;2023-09-18T07:30:12;18.03;;;11.87;;
72895;SDS011;61036;53.224;6.554;2023-09-18T07:32:44;20.97;;;13.93;;
72895;SDS011;61036;53.224;6.554;2023-09-18T07:35:11;17.10;;;12.53;;
72895;SDS011;61036;53.224;6.554;2023-09-18T07:37:38;15.83;;;11.67;;
72895;SDS011;61036;53.224;6.554;2023-09-18T07:40:05;17.23;;;13.10;;
72895;SDS011;61036;53.224;6.554;2023-09-18T07:42:31;17.23;;;12.03;;
72895;SDS011;61036;53.224;6.554;2023-09-18T07:44:57;17.03;;;13.53;;
72895;SDS011;61036;53.224;6.554;2023-09-18T07:47:23;17.00;;;13.00;;
72895;SDS011;61036;53.224;6.554;2023-09-18T07:49:49;18.77;;;14.30;;
72895;SDS011;61036;53.224;6.554;2023-09-18T07:52:16;19.70;;;14.77;;
72895;SDS011;61036;53.224;6.554;2023-09-18T07:54:42;20.30;;;15.07;;
72895;SDS011;61036;53.224;6.554;2023-09-18T07:57:08;18.00;;;14.40;;
72895;SDS011;61036;53.224;6.554;2023-09-18T07:59:37;19.27;;;14.87;;
72895;SDS011;61036;53.224;6.554;2023-09-18T08:02:04;17.27;;;13.40;;
72895;SDS011;61036;53.224;6.554;2023-09-18T08:04:33;16.23;;;12.80;;
72895;SDS011;61036;53.224;6.554;2023-09-18T08:06:58;15.73;;;12.33;;
72895;SDS011;61036;53.224;6.554;2023-09-18T08:09:25;16.73;;;13.53;;
72895;SDS011;61036;53.224;6.554;2023-09-18T08:11:51;20.93;;;15.03;;
72895;SDS011;61036;53.224;6.554;2023-09-18T08:14:20;16.87;;;12.73;;
72895;SDS011;61036;53.224;6.554;2023-09-18T08:16:47;17.47;;;13.37;;
72895;SDS011;61036;53.224;6.554;2023-09-18T08:19:15;17.97;;;14.83;;
72895;SDS011;61036;53.224;6.554;2023-09-18T08:21:45;15.70;;;12.83;;
72895;SDS011;61036;53.224;6.554;2023-09-18T08:24:11;16.03;;;12.97;;
72895;SDS011;61036;53.224;6.554;2023-09-18T08:26:37;18.23;;;12.50;;
72895;SDS011;61036;53.224;6.554;2023-09-18T08:29:03;18.77;;;12.00;;
72895;SDS011;61036;53.224;6.554;2023-09-18T08:31:28;16.70;;;13.00;;
72895;SDS011;61036;53.224;6.554;2023-09-18T08:33:56;17.43;;;12.33;;
72895;SDS011;61036;53.224;6.554;2023-09-18T08:36:23;17.80;;;12.40;;
72895;SDS011;61036;53.224;6.554;2023-09-18T08:38:48;18.87;;;12.50;;
72895;SDS011;61036;53.224;6.554;2023-09-18T08:41:14;17.33;;;12.43;;
72895;SDS011;61036;53.224;6.554;2023-09-18T08:43:44;16.10;;;12.67;;
72895;SDS011;61036;53.224;6.554;2023-09-18T08:46:11;14.17;;;11.83;;
72895;SDS011;61036;53.224;6.554;2023-09-18T08:48:38;16.63;;;11.67;;
72895;SDS011;61036;53.224;6.554;2023-09-18T08:51:05;15.33;;;10.93;;
72895;SDS011;61036;53.224;6.554;2023-09-18T08:53:32;18.10;;;11.30;;
72895;SDS011;61036;53.224;6.554;2023-09-18T08:55:59;13.20;;;10.63;;
72895;SDS011;61036;53.224;6.554;2023-09-18T08:58:33;14.43;;;10.87;;
72895;SDS011;61036;53.224;6.554;2023-09-18T09:01:03;12.07;;;9.40;;
72895;SDS011;61036;53.224;6.554;2023-09-18T09:03:29;12.80;;;10.80;;
72895;SDS011;61036;53.224;6.554;2023-09-18T09:05:55;16.83;;;11.90;;
72895;SDS011;61036;53.224;6.554;2023-09-18T09:08:22;16.63;;;12.50;;
72895;SDS011;61036;53.224;6.554;2023-09-18T09:10:50;16.43;;;12.00;;
72895;SDS011;61036;53.224;6.554;2023-09-18T09:13:16;15.10;;;11.87;;
72895;SDS011;61036;53.224;6.554;2023-09-18T09:15:45;16.43;;;12.17;;
72895;SDS011;61036;53.224;6.554;2023-09-18T09:18:13;18.40;;;12.63;;
72895;SDS011;61036;53.224;6.554;2023-09-18T09:20:55;14.37;;;11.73;;
72895;SDS011;61036;53.224;6.554;2023-09-18T09:23:26;14.60;;;11.00;;
72895;SDS011;61036;53.224;6.554;2023-09-18T09:25:56;18.43;;;12.17;;
72895;SDS011;61036;53.224;6.554;2023-09-18T09:28:37;15.00;;;11.50;;
72895;SDS011;61036;53.224;6.554;2023-09-18T09:31:03;14.50;;;12.33;;
72895;SDS011;61036;53.224;6.554;2023-09-18T09:33:29;13.87;;;10.43;;
72895;SDS011;61036;53.224;6.554;2023-09-18T09:35:56;15.37;;;12.00;;
72895;SDS011;61036;53.224;6.554;2023-09-18T09:38:29;16.77;;;12.23;;
72895;SDS011;61036;53.224;6.554;2023-09-18T09:40:59;17.77;;;12.70;;
72895;SDS011;61036;53.224;6.554;2023-09-18T09:43:32;14.47;;;12.10;;
72895;SDS011;61036;53.224;6.554;2023-09-18T09:45:59;14.73;;;12.40;;
72895;SDS011;61036;53.224;6.554;2023-09-18T09:48:29;16.13;;;11.40;;
72895;SDS011;61036;53.224;6.554;2023-09-18T09:50:57;16.17;;;11.53;;
72895;SDS011;61036;53.224;6.554;2023-09-18T09:53:46;15.80;;;12.27;;
72895;SDS011;61036;53.224;6.554;2023-09-18T09:56:13;13.57;;;11.23;;
72895;SDS011;61036;53.224;6.554;2023-09-18T09:58:40;17.20;;;12.77;;
72895;SDS011;61036;53.224;6.554;2023-09-18T10:01:09;15.60;;;12.50;;
72895;SDS011;61036;53.224;6.554;2023-09-18T10:03:43;16.57;;;12.53;;
72895;SDS011;61036;53.224;6.554;2023-09-18T10:06:10;17.23;;;12.80;;
72895;SDS011;61036;53.224;6.554;2023-09-18T10:08:38;17.50;;;14.00;;
72895;SDS011;61036;53.224;6.554;2023-09-18T10:11:06;14.57;;;12.53;;
72895;SDS011;61036;53.224;6.554;2023-09-18T10:16:53;18.67;;;14.60;;
72895;SDS011;61036;53.224;6.554;2023-09-18T10:19:27;17.33;;;14.33;;
72895;SDS011;61036;53.224;6.554;2023-09-18T10:24:36;15.80;;;13.57;;
72895;SDS011;61036;53.224;6.554;2023-09-18T10:27:03;19.00;;;13.93;;
72895;SDS011;61036;53.224;6.554;2023-09-18T10:29:34;20.53;;;15.03;;
72895;SDS011;61036;53.224;6.554;2023-09-18T10:32:05;17.97;;;15.23;;
72895;SDS011;61036;53.224;6.554;2023-09-18T10:34:33;16.53;;;14.07;;
72895;SDS011;61036;53.224;6.554;2023-09-18T10:37:01;15.33;;;13.73;;
72895;SDS011;61036;53.224;6.554;2023-09-18T10:39:34;16.67;;;14.40;;
72895;SDS011;61036;53.224;6.554;2023-09-18T10:42:01;15.77;;;14.17;;
72895;SDS011;61036;53.224;6.554;2023-09-18T10:44:29;15.97;;;13.67;;
72895;SDS011;61036;53.224;6.554;2023-09-18T10:46:56;16.77;;;13.27;;
72895;SDS011;61036;53.224;6.554;2023-09-18T10:49:24;14.03;;;12.63;;
72895;SDS011;61036;53.224;6.554;2023-09-18T10:51:52;13.23;;;11.43;;
72895;SDS011;61036;53.224;6.554;2023-09-18T10:54:20;11.40;;;10.20;;
72895;SDS011;61036;53.224;6.554;2023-09-18T10:56:47;14.23;;;10.73;;
72895;SDS011;61036;53.224;6.554;2023-09-18T10:59:16;12.40;;;10.00;;
72895;SDS011;61036;53.224;6.554;2023-09-18T11:01:43;13.50;;;9.53;;
72895;SDS011;61036;53.224;6.554;2023-09-18T11:04:10;10.63;;;8.43;;
72895;SDS011;61036;53.224;6.554;2023-09-18T11:09:25;10.70;;;8.03;;
72895;SDS011;61036;53.224;6.554;2023-09-18T11:12:02;10.80;;;7.97;;
72895;SDS011;61036;53.224;6.554;2023-09-18T11:17:27;10.07;;;7.27;;
72895;SDS011;61036;53.224;6.554;2023-09-18T11:20:03;14.90;;;7.73;;
72895;SDS011;61036;53.224;6.554;2023-09-18T11:22:37;9.73;;;6.80;;
72895;SDS011;61036;53.224;6.554;2023-09-18T11:28:00;11.33;;;6.60;;
72895;SDS011;61036;53.224;6.554;2023-09-18T11:30:27;8.97;;;6.40;;
72895;SDS011;61036;53.224;6.554;2023-09-18T11:32:54;10.40;;;6.23;;
72895;SDS011;61036;53.224;6.554;2023-09-18T11:35:20;8.27;;;6.00;;
72895;SDS011;61036;53.224;6.554;2023-09-18T11:37:47;8.43;;;5.77;;
72895;SDS011;61036;53.224;6.554;2023-09-18T11:40:35;8.27;;;5.80;;
72895;SDS011;61036;53.224;6.554;2023-09-18T11:43:18;7.47;;;5.27;;
72895;SDS011;61036;53.224;6.554;2023-09-18T11:45:58;6.33;;;5.37;;
72895;SDS011;61036;53.224;6.554;2023-09-18T11:48:25;9.60;;;4.90;;
72895;SDS011;61036;53.224;6.554;2023-09-18T11:50:53;8.60;;;5.57;;
72895;SDS011;61036;53.224;6.554;2023-09-18T11:53:20;9.03;;;5.87;;
72895;SDS011;61036;53.224;6.554;2023-09-18T11:55:46;7.37;;;5.27;;
72895;SDS011;61036;53.224;6.554;2023-09-18T11:58:13;7.77;;;5.13;;
72895;SDS011;61036;53.224;6.554;2023-09-18T12:00:39;8.00;;;5.30;;
72895;SDS011;61036;53.224;6.554;2023-09-18T12:03:13;10.13;;;5.60;;
72895;SDS011;61036;53.224;6.554;2023-09-18T12:06:01;8.03;;;5.40;;
72895;SDS011;61036;53.224;6.554;2023-09-18T12:08:31;7.27;;;5.10;;
72895;SDS011;61036;53.224;6.554;2023-09-18T12:10:57;7.00;;;5.03;;
72895;SDS011;61036;53.224;6.554;2023-09-18T12:13:26;7.43;;;4.80;;
72895;SDS011;61036;53.224;6.554;2023-09-18T12:15:59;8.77;;;5.53;;
72895;SDS011;61036;53.224;6.554;2023-09-18T12:18:32;7.03;;;4.87;;
72895;SDS011;61036;53.224;6.554;2023-09-18T12:21:01;8.03;;;5.23;;
72895;SDS011;61036;53.224;6.554;2023-09-18T12:23:29;7.77;;;4.77;;
72895;SDS011;61036;53.224;6.554;2023-09-18T12:26:02;6.90;;;4.57;;
72895;SDS011;61036;53.224;6.554;2023-09-18T12:28:28;7.23;;;4.50;;
72895;SDS011;61036;53.224;6.554;2023-09-18T12:30:55;8.17;;;4.80;;
72895;SDS011;61036;53.224;6.554;2023-09-18T12:33:24;8.90;;;4.77;;
72895;SDS011;61036;53.224;6.554;2023-09-18T12:35:50;10.67;;;4.83;;
72895;SDS011;61036;53.224;6.554;2023-09-18T12:38:17;6.87;;;4.90;;
72895;SDS011;61036;53.224;6.554;2023-09-18T12:40:50;7.67;;;4.80;;
72895;SDS011;61036;53.224;6.554;2023-09-18T12:43:17;7.97;;;4.80;;
72895;SDS011;61036;53.224;6.554;2023-09-18T12:45:43;6.33;;;4.33;;
72895;SDS011;61036;53.224;6.554;2023-09-18T12:48:11;6.83;;;4.70;;
72895;SDS011;61036;53.224;6.554;2023-09-18T12:50:38;7.53;;;4.97;;
72895;SDS011;61036;53.224;6.554;2023-09-18T12:53:13;8.23;;;4.80;;
72895;SDS011;61036;53.224;6.554;2023-09-18T12:55:40;8.67;;;4.77;;
72895;SDS011;61036;53.224;6.554;2023-09-18T12:58:11;6.43;;;4.47;;
72895;SDS011;61036;53.224;6.554;2023-09-18T13:00:44;7.03;;;4.50;;
72895;SDS011;61036;53.224;6.554;2023-09-18T13:03:12;6.87;;;5.30;;
72895;SDS011;61036;53.224;6.554;2023-09-18T13:05:41;8.33;;;4.60;;
72895;SDS011;61036;53.224;6.554;2023-09-18T13:08:06;6.27;;;4.40;;
72895;SDS011;61036;53.224;6.554;2023-09-18T13:10:40;7.20;;;4.20;;
72895;SDS011;61036;53.224;6.554;2023-09-18T13:13:18;6.73;;;4.30;;
72895;SDS011;61036;53.224;6.554;2023-09-18T13:15:45;6.93;;;3.83;;
72895;SDS011;61036;53.224;6.554;2023-09-18T13:18:12;9.53;;;4.27;;
72895;SDS011;61036;53.224;6.554;2023-09-18T13:20:39;7.03;;;3.97;;
72895;SDS011;61036;53.224;6.554;2023-09-18T13:23:08;6.73;;;3.70;;
72895;SDS011;61036;53.224;6.554;2023-09-18T13:25:37;8.53;;;4.27;;
72895;SDS011;61036;53.224;6.554;2023-09-18T13:28:06;6.20;;;4.43;;
72895;SDS011;61036;53.224;6.554;2023-09-18T13:30:35;6.20;;;4.20;;
72895;SDS011;61036;53.224;6.554;2023-09-18T13:33:06;7.90;;;4.13;;
72895;SDS011;61036;53.224;6.554;2023-09-18T13:35:37;6.60;;;4.63;;
72895;SDS011;61036;53.224;6.554;2023-09-18T13:38:05;7.30;;;4.73;;
72895;SDS011;61036;53.224;6.554;2023-09-18T13:40:32;6.43;;;4.40;;
72895;SDS011;61036;53.224;6.554;2023-09-18T13:43:02;9.17;;;5.10;;
72895;SDS011;61036;53.224;6.554;2023-09-18T13:45:32;6.80;;;4.47;;
72895;SDS011;61036;53.224;6.554;2023-09-18T13:48:00;8.00;;;4.67;;
72895;SDS011;61036;53.224;6.554;2023-09-18T13:50:26;9.57;;;4.53;;
72895;SDS011;61036;53.224;6.554;2023-09-18T13:52:52;7.13;;;3.90;;
72895;SDS011;61036;53.224;6.554;2023-09-18T13:55:19;6.20;;;4.27;;
72895;SDS011;61036;53.224;6.554;2023-09-18T13:57:44;6.20;;;4.03;;
72895;SDS011;61036;53.224;6.554;2023-09-18T14:00:11;6.23;;;4.00;;
72895;SDS011;61036;53.224;6.554;2023-09-18T14:02:39;5.63;;;3.73;;
72895;SDS011;61036;53.224;6.554;2023-09-18T14:05:06;6.57;;;4.27;;
72895;SDS011;61036;53.224;6.554;2023-09-18T14:07:33;6.50;;;4.27;;
72895;SDS011;61036;53.224;6.554;2023-09-18T14:09:59;8.17;;;4.77;;
72895;SDS011;61036;53.224;6.554;2023-09-18T14:12:32;7.20;;;4.30;;
72895;SDS011;61036;53.224;6.554;2023-09-18T14:14:58;8.50;;;5.37;;
72895;SDS011;61036;53.224;6.554;2023-09-18T14:17:25;7.30;;;5.47;;
72895;SDS011;61036;53.224;6.554;2023-09-18T14:19:51;8.03;;;5.07;;
72895;SDS011;61036;53.224;6.554;2023-09-18T14:22:18;6.97;;;4.90;;
72895;SDS011;61036;53.224;6.554;2023-09-18T14:24:44;8.20;;;5.20;;
72895;SDS011;61036;53.224;6.554;2023-09-18T14:27:11;6.83;;;4.80;;
72895;SDS011;61036;53.224;6.554;2023-09-18T14:29:37;6.90;;;4.13;;
72895;SDS011;61036;53.224;6.554;2023-09-18T14:32:03;8.53;;;4.20;;
72895;SDS011;61036;53.224;6.554;2023-09-18T14:34:29;5.90;;;4.00;;
72895;SDS011;61036;53.224;6.554;2023-09-18T14:37:00;6.50;;;4.20;;
72895;SDS011;61036;53.224;6.554;2023-09-18T14:39:30;7.37;;;4.20;;
72895;SDS011;61036;53.224;6.554;2023-09-18T14:41:56;8.30;;;4.17;;
72895;SDS011;61036;53.224;6.554;2023-09-18T14:44:22;10.10;;;4.37;;
72895;SDS011;61036;53.224;6.554;2023-09-18T14:46:47;5.93;;;4.00;;
72895;SDS011;61036;53.224;6.554;2023-09-18T14:49:14;5.90;;;3.67;;